• Join FlightAware (Why Join?)
  • Login
  • US Flag 
02:26PM EDT


 

Airport Tracker/Info


-or-


 

Live Flight TrackerFlight Track Log ✈ SWA279 ✈ 19-Apr-2013 ✈ KMHT - KDEN

Flight Track Log - Related Links

Times and Time Zones

All times are in EDT time to prevent confusion due to time zone crossing. See the SWA279 flight status page for this flight to view local times or setup timezone preferences in your user account.

Time Position Orientation Groundspeed Altitude Reporting Facility
EDT Latitude Longitude Course Direction KTS MPH feet Rate Location/Type
06:53AM 42.9167 -71.4167 228° Southwest 150 173 1,400  Level KA90
06:54AM 42.8833 -71.4667 228° Southwest 190 219 3,700 2,160 Climbing KA90
06:54AM 42.8967 -71.4906 307° West 247 284 4,500 2,820 Climbing Boston Center
06:55AM 42.9450 -71.5608 313° West 272 313 7,800 3,000 Climbing Boston Center
06:56AM 42.9647 -71.6628 285° West 251 289 10,600 2,280 Climbing Boston Center
06:57AM 42.9717 -71.7761 275° West 303 349 12,400 2,400 Climbing Boston Center
06:58AM 42.9806 -71.9208 275° West 340 391 15,600 2,760 Climbing Boston Center
06:59AM 42.9894 -72.0456 276° West 371 427 18,000 2,400 Climbing Boston Center
07:01AM 43.0131 -72.3522 276° West 385 443 22,900 2,280 Climbing Boston Center
07:02AM 43.0214 -72.5053 274° West 397 457 24,900 1,800 Climbing Boston Center
07:03AM 43.0233 -72.6444 271° West 409 471 26,500 1,440 Climbing Boston Center
07:04AM 43.0292 -72.8036 273° West 415 478 27,900 1,260 Climbing Boston Center
07:05AM 43.0389 -72.9714 275° West 428 493 29,100 1,560 Climbing Boston Center
07:06AM 43.0525 -73.1561 276° West 446 513 31,000 2,040 Climbing Boston Center
07:07AM 43.0600 -73.3039 274° West 441 507 33,200 1,800 Climbing Boston Center
07:08AM 43.0625 -73.4772 271° West 431 496 34,700 1,320 Climbing Boston Center
07:09AM 43.0694 -73.6308 274° West 424 488 36,000 660 Climbing Boston Center
07:10AM 43.0761 -73.7844 273° West 418 481 36,000  Level Boston Center
07:11AM 43.0867 -73.9411 275° West 413 475 36,000  Level Boston Center
07:12AM 43.0928 -74.0947 273° West 413 475 36,000  Level Boston Center
07:13AM 43.0967 -74.2486 272° West 408 470 36,000  Level Boston Center
07:14AM 43.1047 -74.3994 274° West 403 464 36,000  Level Boston Center
07:15AM 43.1103 -74.5533 273° West 403 464 36,000  Level Boston Center
07:16AM 43.1156 -74.7069 273° West 403 464 36,000  Level Boston Center
07:17AM 43.1208 -74.8608 273° West 403 464 36,000  Level Boston Center
07:18AM 43.1258 -75.0147 273° West 403 464 36,000  Level Boston Center
07:19AM 43.1283 -75.1714 271° West 408 470 36,000  Level Boston Center
07:20AM 43.1350 -75.3281 273° West 408 470 36,000  Level Boston Center
07:21AM 43.1392 -75.4847 272° West 408 470 36,000  Level Boston Center
07:22AM 43.1461 -75.6189 274° West 403 464 36,000  Level Boston Center
07:23AM 43.1481 -75.7700 271° West 403 464 36,000  Level Boston Center
07:24AM 43.1539 -75.9211 273° West 403 464 36,000  Level Boston Center
07:25AM 43.1578 -76.0636 272° West 403 464 36,000  Level Boston Center
07:26AM 43.1569 -76.2147 270° West 403 464 36,000  Level Boston Center
07:28AM 43.0864 -76.4439 247° West 387 445 36,000  Level Cleveland Center
07:29AM 43.0453 -76.5772 247° West 382 440 36,000  Level Cleveland Center
07:30AM 42.9961 -76.7253 246° West 388 447 36,000  Level Cleveland Center
07:31AM 42.9561 -76.8442 245° Southwest 388 447 36,000  Level Cleveland Center
07:32AM 42.9144 -76.9742 246° West 388 447 36,000  Level Cleveland Center
07:33AM 42.8706 -77.1069 246° West 388 447 36,000  Level Cleveland Center
07:34AM 42.8306 -77.2367 247° West 388 447 36,000  Level Cleveland Center
07:35AM 42.7864 -77.3664 245° Southwest 388 447 36,000  Level Cleveland Center
07:36AM 42.7461 -77.4928 247° West 388 447 36,000  Level Cleveland Center
07:37AM 42.7331 -77.6264 262° West 388 447 36,000  Level Cleveland Center
07:38AM 42.7206 -77.8022 265° West 389 448 36,000  Level Cleveland Center
07:39AM 42.7094 -77.9442 264° West 396 456 36,000  Level Cleveland Center
07:40AM 42.6981 -78.0914 264° West 389 448 36,000  Level Cleveland Center
07:41AM 42.6864 -78.2303 264° West 389 448 36,000  Level Cleveland Center
07:42AM 42.6767 -78.3719 265° West 389 448 36,000  Level Cleveland Center
07:43AM 42.6647 -78.5164 264° West 389 448 36,000  Level Cleveland Center
07:44AM 42.6525 -78.6578 263° West 389 448 36,000  Level Cleveland Center
07:45AM 42.6425 -78.8022 265° West 389 448 36,000  Level Cleveland Center
07:46AM 42.6300 -78.9436 263° West 389 448 36,000  Level Cleveland Center
07:47AM 42.6172 -79.0878 263° West 389 448 36,000  Level Cleveland Center
07:48AM 42.6064 -79.2292 264° West 389 448 36,000  Level Cleveland Center
07:49AM 42.5956 -79.3703 264° West 389 448 36,000  Level Cleveland Center
07:50AM 42.5825 -79.5144 263° West 389 448 36,000 180 Level Cleveland Center
07:51AM 42.5692 -79.6556 263° West 389 448 36,400 840 Climbing Cleveland Center
07:52AM 42.5597 -79.7967 265° West 389 448 37,700 780 Climbing Cleveland Center
07:53AM 42.5439 -79.9378 261° West 389 448 38,000 120 Climbing Cleveland Center
07:54AM 42.5300 -80.0789 262° West 389 448 38,000  Level Cleveland Center
07:55AM 42.5158 -80.2228 262° West 389 448 38,000  Level Cleveland Center
07:56AM 42.5017 -80.3608 262° West 383 441 38,000  Level Cleveland Center
07:57AM 42.4894 -80.5017 263° West 384 442 38,000  Level Cleveland Center
07:58AM 42.4747 -80.6422 262° West 378 435 38,000  Level Cleveland Center
07:59AM 42.4622 -80.7633 262° West 378 435 38,000  Level Cleveland Center
08:00AM 42.4472 -80.9039 262° West 378 435 38,000  Level Cleveland Center
08:01AM 42.4342 -81.0417 263° West 373 429 38,000  Level Cleveland Center
08:02AM 42.4211 -81.1794 263° West 373 429 38,000  Level Cleveland Center
08:03AM 42.4058 -81.3169 261° West 373 429 38,000  Level Cleveland Center
08:04AM 42.3922 -81.4575 263° West 368 423 38,000  Level Cleveland Center
08:05AM 42.3767 -81.5922 261° West 368 423 38,000  Level Cleveland Center
08:06AM 42.3608 -81.7239 261° West 368 423 38,000  Level Cleveland Center
08:07AM 42.3469 -81.8586 262° West 368 423 38,000  Level Cleveland Center
08:08AM 42.3325 -82.0100 263° West 363 418 38,000  Level Cleveland Center
08:09AM 42.3183 -82.1417 262° West 369 425 38,000  Level Cleveland Center
08:10AM 42.3000 -82.2592 258° West 364 419 38,000  Level Cleveland Center
08:11AM 42.2856 -82.3906 262° West 364 419 38,000  Level Cleveland Center
08:12AM 42.2708 -82.5250 262° West 369 425 38,000  Level Cleveland Center
08:13AM 42.2558 -82.6592 261° West 369 425 38,000  Level Cleveland Center
08:14AM 42.2389 -82.7961 261° West 369 425 38,000  Level Cleveland Center
08:15AM 42.2236 -82.9300 261° West 369 425 38,000  Level Cleveland Center
08:16AM 42.2061 -83.0639 260° West 369 425 38,000  Level Cleveland Center
08:17AM 42.1883 -83.2147 261° West 369 425 38,000  Level Cleveland Center
08:18AM 42.1725 -83.3514 261° West 381 438 38,000  Level Cleveland Center
08:19AM 42.1592 -83.4739 262° West 371 427 38,000  Level Cleveland Center
08:20AM 42.1389 -83.6131 259° West 371 427 38,000  Level Cleveland Center
08:21AM 42.1200 -83.7661 261° West 376 433 38,000  Level Cleveland Center
08:22AM 42.1039 -83.8997 261° West 371 427 38,000  Level Cleveland Center
08:23AM 42.0853 -84.0331 259° West 371 427 38,000  Level Cleveland Center
08:24AM 42.0686 -84.1692 261° West 371 427 38,000  Level Cleveland Center
08:26AM 42.0422 -84.3911 261° West 367 422 38,000  Level Chicago Center
08:27AM 42.0194 -84.5542 259° West 366 421 38,000  Level Chicago Center
08:28AM 42.0100 -84.6872 265° West 367 422 38,000  Level Chicago Center
08:29AM 42.0100 -84.8272 270° West 375 432 38,000  Level Chicago Center
08:30AM 42.0083 -84.9667 269° West 373 429 38,000  Level Chicago Center
08:31AM 42.0075 -85.1036 270° West 370 426 38,000  Level Chicago Center
08:32AM 42.0058 -85.2439 269° West 374 430 38,000  Level Chicago Center
08:33AM 42.0044 -85.3847 269° West 376 433 38,000  Level Chicago Center
08:34AM 42.0017 -85.5411 269° West 378 435 38,000  Level Chicago Center
08:35AM 41.9997 -85.6797 269° West 375 432 38,000  Level Chicago Center
08:36AM 41.9981 -85.8194 269° West 376 433 38,000  Level Chicago Center
08:37AM 41.9953 -85.9889 269° West 380 437 38,000  Level Chicago Center
08:38AM 41.9931 -86.1314 269° West 383 441 38,000  Level Chicago Center
08:39AM 41.9900 -86.2761 268° West 387 445 38,000  Level Chicago Center
08:40AM 41.9858 -86.4217 268° West 392 451 38,000  Level Chicago Center
08:41AM 41.9833 -86.5661 269° West 389 448 38,000  Level Chicago Center
08:42AM 41.9806 -86.7228 269° West 391 450 38,000  Level Chicago Center
08:43AM 41.9761 -86.8678 268° West 392 451 38,000  Level Chicago Center
08:44AM 41.9722 -87.0411 268° West 389 448 38,000  Level Chicago Center
08:45AM 41.9675 -87.1858 268° West 390 449 38,000  Level Chicago Center
08:46AM 41.9639 -87.3317 268° West 393 452 38,000  Level Chicago Center
08:47AM 41.9578 -87.4775 267° West 395 455 38,000  Level Chicago Center
08:48AM 41.9533 -87.6258 268° West 400 460 38,000  Level Chicago Center
08:49AM 41.9492 -87.7764 268° West 405 466 38,000  Level Chicago Center
08:50AM 41.9428 -87.9542 267° West 402 463 38,000  Level Chicago Center
08:51AM 41.9378 -88.1014 267° West 400 460 38,000  Level Chicago Center
08:52AM 41.9322 -88.2494 267° West 402 463 38,000  Level Chicago Center
08:54AM 41.9264 -88.3958 267° West 398 458 38,000  Level Chicago Center
08:55AM 41.9203 -88.5447 267° West 403 464 38,000  Level Chicago Center
08:56AM 41.9133 -88.7219 267° West 401 461 38,000  Level Chicago Center
08:57AM 41.9067 -88.8708 267° West 402 463 38,000  Level Chicago Center
08:58AM 41.9000 -89.0189 267° West 401 461 38,000  Level Chicago Center
08:59AM 41.8933 -89.1658 267° West 399 459 38,000  Level Chicago Center
09:00AM 41.8875 -89.3142 267° West 400 460 38,000  Level Chicago Center
09:01AM 41.8822 -89.4575 267° West 391 450 38,000  Level Chicago Center
09:02AM 41.8708 -89.6317 265° West 392 451 38,000  Level Chicago Center
09:03AM 41.8639 -89.7794 266° West 397 457 38,000  Level Chicago Center
09:04AM 41.8594 -89.9069 267° West 399 459 38,000  Level Chicago Center
09:05AM 41.8508 -90.0817 266° West 395 455 38,000  Level Chicago Center
09:06AM 41.8419 -90.2286 265° West 397 457 38,000  Level Chicago Center
09:07AM 41.8361 -90.3739 267° West 393 452 38,000  Level Chicago Center
09:08AM 41.8267 -90.5228 265° West 399 459 38,000  Level Chicago Center
09:09AM 41.8150 -90.6775 264° West 421 484 38,000  Level Chicago Center
09:10AM 41.8069 -90.8253 266° West 405 466 38,000  Level Chicago Center
09:11AM 41.7967 -91.0056 266° West 405 466 38,000  Level Chicago Center
09:12AM 41.7869 -91.1558 265° West 406 467 38,000  Level Chicago Center
09:13AM 41.7783 -91.3086 266° West 410 472 38,000  Level Chicago Center
09:14AM 41.7675 -91.4628 265° West 416 479 38,000  Level Chicago Center
09:15AM 41.7569 -91.6158 265° West 415 478 38,000  Level Chicago Center
09:16AM 41.7464 -91.7683 265° West 414 476 38,000  Level Chicago Center
09:17AM 41.7361 -91.9214 265° West 413 475 38,000  Level Chicago Center
09:18AM 41.7247 -92.1053 265° West 415 478 38,000  Level Chicago Center
09:19AM 41.7128 -92.2569 264° West 414 476 38,000  Level Chicago Center
09:20AM 41.7025 -92.4097 265° West 413 475 38,000  Level Chicago Center
09:21AM 41.6908 -92.5631 264° West 416 479 38,000  Level Chicago Center
09:22AM 41.6778 -92.7178 264° West 414 476 38,000  Level Minneapolis Center
09:23AM 41.6661 -92.8689 264° West 415 478 38,000  Level Minneapolis Center
09:24AM 41.6542 -93.0194 264° West 413 475 38,000  Level Minneapolis Center
09:25AM 41.6414 -93.1728 264° West 418 481 38,000  Level Minneapolis Center
09:26AM 41.6272 -93.3531 264° West 413 475 38,000  Level Minneapolis Center
09:27AM 41.6139 -93.5053 263° West 415 478 38,000  Level Minneapolis Center
09:28AM 41.6031 -93.6508 264° West 405 466 38,000  Level Minneapolis Center
09:29AM 41.5908 -93.8019 264° West 410 472 38,000  Level Minneapolis Center
09:30AM 41.5769 -93.9564 263° West 419 482 38,000  Level Minneapolis Center
09:31AM 41.5642 -94.1067 264° West 415 478 38,000  Level Minneapolis Center
09:33AM 41.5486 -94.2697 263° West 420 483 38,000  Level Minneapolis Center
09:34AM 41.5333 -94.4225 262° West 418 481 38,000  Level Minneapolis Center
09:35AM 41.5178 -94.6075 264° West 418 481 38,000  Level Minneapolis Center
09:36AM 41.5022 -94.7592 262° West 415 478 38,000  Level Minneapolis Center
09:37AM 41.4878 -94.9128 263° West 416 479 38,000  Level Minneapolis Center
09:38AM 41.4747 -95.0625 263° West 409 471 38,000  Level Minneapolis Center
09:39AM 41.4592 -95.2150 262° West 415 478 38,000  Level Minneapolis Center
09:40AM 41.4439 -95.3675 262° West 415 478 38,000  Level Minneapolis Center
09:41AM 41.4275 -95.5189 262° West 413 475 38,000  Level Minneapolis Center
09:42AM 41.4119 -95.6864 263° West 417 480 38,000  Level Minneapolis Center
09:43AM 41.3961 -95.8406 262° West 419 482 38,000  Level Minneapolis Center
09:44AM 41.3800 -95.9944 262° West 420 483 38,000  Level Minneapolis Center
09:45AM 41.3639 -96.1450 262° West 413 475 38,000  Level Minneapolis Center
09:46AM 41.3472 -96.2958 262° West 412 474 38,000  Level Minneapolis Center
09:47AM 41.3311 -96.4467 262° West 411 473 38,000  Level Minneapolis Center
09:48AM 41.3106 -96.6267 261° West 411 473 38,000  Level Minneapolis Center
09:49AM 41.2931 -96.7744 261° West 407 468 38,000  Level Minneapolis Center
09:50AM 41.2775 -96.9247 262° West 408 470 38,000  Level Minneapolis Center
09:51AM 41.2600 -97.0739 261° West 409 471 38,000  Level Minneapolis Center
09:52AM 41.2417 -97.2225 261° West 410 472 38,000  Level Minneapolis Center
09:53AM 41.2236 -97.3728 261° West 410 472 38,000  Level Minneapolis Center
09:54AM 41.2056 -97.5267 261° West 414 476 38,000  Level Minneapolis Center
09:55AM 41.1844 -97.7058 261° West 410 472 38,000  Level Minneapolis Center
09:56AM 41.1658 -97.8572 261° West 413 475 38,000  Level Minneapolis Center
09:57AM 41.1475 -98.0064 261° West 411 473 38,000  Level Minneapolis Center
09:58AM 41.1286 -98.1544 260° West 407 468 38,000  Level Minneapolis Center
09:59AM 41.1103 -98.3042 261° West 409 471 38,000  Level Minneapolis Center
10:00AM 41.0919 -98.4483 260° West 407 468 38,000  Level Minneapolis Center
10:01AM 41.0733 -98.5978 261° West 410 472 38,000  Level Minneapolis Center
10:02AM 41.0553 -98.7458 261° West 409 471 38,000  Level Minneapolis Center
10:03AM 41.0353 -98.8942 260° West 408 470 38,000  Level Minneapolis Center
10:04AM 41.0106 -99.0750 260° West 415 478 38,000  Level Minneapolis Center
10:05AM 41.0000 -99.1533 260° West 417 480 38,000  Level Denver Center
10:06AM 40.9792 -99.3061 260° West 420 483 38,000  Level Denver Center
10:07AM 40.9581 -99.4608 260° West 424 488 38,000  Level Denver Center
10:08AM 40.9369 -99.6150 260° West 425 489 38,000  Level Denver Center
10:09AM 40.9164 -99.7644 260° West 416 479 38,000  Level Denver Center
10:10AM 40.8950 -99.9117 259° West 408 470 38,000  Level Denver Center
10:11AM 40.8717 -100.0733 259° West 403 464 38,000  Level Denver Center
10:12AM 40.8517 -100.2122 259° West 403 464 38,000  Level Denver Center
10:13AM 40.8275 -100.3742 259° West 401 461 38,000  Level Denver Center
10:14AM 40.8083 -100.5144 260° West 404 465 38,000  Level Denver Center
10:15AM 40.7881 -100.6542 259° West 403 464 38,000  Level Denver Center
10:16AM 40.7644 -100.8150 259° West 409 471 38,000  Level Denver Center
10:17AM 40.7353 -100.9686 256° West 414 476 38,000  Level Denver Center
10:18AM 40.7114 -101.1117 258° West 416 479 38,000  Level Denver Center
10:19AM 40.6825 -101.2772 257° West 415 478 38,000  Level Denver Center
10:20AM 40.6589 -101.4169 257° West 411 473 38,000  Level Denver Center
10:21AM 40.6353 -101.5556 257° West 406 467 38,000  Level Denver Center
10:22AM 40.6050 -101.7181 256° West 410 472 38,000  Level Denver Center
10:23AM 40.5806 -101.8561 257° West 405 466 38,000  Level Denver Center
10:24AM 40.5492 -102.0169 256° West 407 468 38,000  Level Denver Center
10:25AM 40.5250 -102.1547 257° West 403 464 38,000  Level Denver Center
10:26AM 40.4939 -102.3153 256° West 406 467 38,000  Level Denver Center
10:27AM 40.4700 -102.4531 257° West 404 465 38,000  Level Denver Center
10:28AM 40.4400 -102.6131 256° West 405 466 38,000 -900 Level Denver Center
10:30AM 40.4139 -102.7497 256° West 397 457 36,200 -2,340 Descending Denver Center
10:31AM 40.3864 -102.8953 256° West 409 471 33,300 -2,880 Descending Denver Center
10:32AM 40.3578 -103.0447 256° West 417 480 30,300 -2,520 Descending Denver Center
10:33AM 40.3297 -103.1908 256° West 410 472 28,200 -2,100 Descending Denver Center
10:34AM 40.3025 -103.3308 256° West 396 456 26,000 -2,100 Descending Denver Center
10:35AM 40.2764 -103.4650 256° West 380 437 23,900 -2,220 Descending Denver Center
10:36AM 40.2478 -103.6136 256° West 359 413 21,500 -1,920 Descending Denver Center
10:37AM 40.2247 -103.7242 255° West 337 388 20,000 -1,320 Descending Denver Center
10:38AM 40.2028 -103.8447 257° West 310 357 18,800 -1,320 Descending Denver Center
10:39AM 40.2100 -103.9469 275° West 284 327 17,400 -1,440 Descending Denver Center
10:40AM 40.2175 -104.0497 275° West 267 307 15,900 -1,500 Descending Denver Center
10:41AM 40.2281 -104.1503 278° West 279 321 14,300 -1,560 Descending Denver Center
10:42AM 40.2328 -104.2569 273° West 279 321 12,700 -1,260 Descending Denver Center
10:43AM 40.1997 -104.3500 245° Southwest 283 326 11,800 -960 Descending Denver Center
10:44AM 40.1642 -104.4417 243° Southwest 282 325 10,800 -1,260 Descending Denver Center
10:45AM 40.1317 -104.5411 247° West 277 319 9,200 -1,440 Descending Denver Center
10:45AM 40.1167 -104.5667 232° Southwest 270 311 8,900 -720 Descending Denver TRACON
10:46AM 40.0833 -104.6333 237° Southwest 250 288 8,300 -540 Descending Denver TRACON
10:47AM 40.0325 -104.6578 200° South 236 272 8,000 -780 Descending Denver Center
10:48AM 39.9758 -104.6872 202° Southwest 221 254 6,900 -1,020 Descending Denver Center
10:49AM 39.9242 -104.6867 180° South 170 196 5,900 -780 Descending Denver Center
10:50AM 39.8883 -104.6875 181° South 147 169 5,300 -600 Descending Denver Center
10:52AM 39.8617 -104.6732 North  Level Estimated
10:59AM 39.8617 -104.6732 North  Level Estimated
11:00AM 39.8617 -104.6732 North  Level Estimated